<?xml version="1.0" encoding="UTF-8" standalone="no" ?>
<gpx xmlns="http://www.topografix.com/GPX/1/1" xmlns:xsi="http://www.w3.org/2001/XMLSchema-instance" xsi:schemaLocation="http://www.topografix.com/GPX/1/1 http://www.topografix.com/GPX/1/1/gpx.xsd" version="1.1" creator="VisuGPX - https://www.visugpx.com">
  <metadata>
    <name>2020-06-07 10:29</name>
    <desc><![CDATA[
<p>Heure de départ: 06/07/2020 10:34<br/>Heure d'arrivée: 06/07/2020 12:44<br/>Distance: 21,4 km (02:10)<br/>Temps déplacement: 02:03<br/>Vitesse moyenne: 9,83 km/h<br/>Vitesse moyenne mouv.: 10,45 km/h<br/>Vitesse Max.: 17,94 km/h<br/>Altitude minimale: 240 m<br/>Altitude maximale: 402 m<br/>Vitesse de montée: 577,3 m/h<br/>Vitesse de descente: -546,3 m/h<br/>Gain d'altitude: 616 m<br/>Perte d'altitude: -594 m<br/>Temps de montée: 01:04<br/>Temps de descente: 01:05<br/></p><hr align="center" width="480" style="height: 2px; width: 517px"/>]]></desc>
  </metadata>
  <wpt lat="46.17281" lon="3.42896">
    <ele>294.55</ele>
    <name><![CDATA[0000265]]></name>
    <type><![CDATA[Point de départ]]></type>
  </wpt>
  <wpt lat="46.1705" lon="3.43111">
    <ele>314.68</ele>
    <name><![CDATA[0000266]]></name>
    <desc><![CDATA[<p><br /><h3>Nom: Segment: 1</h3><br />Heure de départ: 06/07/2020 10:34<br/>Heure d'arrivée: 06/07/2020 12:44<br/>Distance: 21,4km (02:10)<br/>Temps déplacement: 02:03<br/>Vitesse moyenne: 9,83 km/h<br/>Vitesse moyenne mouv.: 10,45 km/h<br/>Vitesse Max.: 17,94 km/h<br/>Altitude minimale: 240 m<br/>Altitude maximale: 402 m<br/>Vitesse de montée: 698,4 m/h<br/>Vitesse de descente: -674,2 m/h<br/>Gain d'altitude: 754 m<br/>Perte d'altitude: -719 m<br/>Temps de montée: 01:04<br/>Temps de descente: 01:04<br/></p>]]></desc>
    <type><![CDATA[Point d'arrivée]]></type>
  </wpt>
  <trk>
    <name><![CDATA[2020-06-07 10:29]]></name>
    <desc><![CDATA[<p>Heure de départ: 06/07/2020 10:34<br/>Heure d'arrivée: 06/07/2020 12:44<br/>Distance: 21,4 km (02:10)<br/>Temps déplacement: 02:03<br/>Vitesse moyenne: 9,83 km/h<br/>Vitesse moyenne mouv.: 10,45 km/h<br/>Vitesse Max.: 17,94 km/h<br/>Altitude minimale: 240 m<br/>Altitude maximale: 402 m<br/>Vitesse de montée: 577,3 m/h<br/>Vitesse de descente: -546,3 m/h<br/>Gain d'altitude: 616 m<br/>Perte d'altitude: -594 m<br/>Temps de montée: 01:04<br/>Temps de descente: 01:05<br/></p><hr align="center" width="480" style="height: 2px; width: 517px"/>]]></desc>
    <trkseg>
      <trkpt lat="46.17281" lon="3.42896">
        <ele>294.55</ele>
        <time>2020-06-07T08:34:03Z</time>
      </trkpt>
      <trkpt lat="46.17326" lon="3.42917">
        <ele>306.23</ele>
        <time>2020-06-07T08:34:23Z</time>
      </trkpt>
      <trkpt lat="46.17362" lon="3.42926">
        <ele>304.72</ele>
        <time>2020-06-07T08:34:35Z</time>
      </trkpt>
      <trkpt lat="46.17399" lon="3.42958">
        <ele>302.65</ele>
        <time>2020-06-07T08:34:51Z</time>
      </trkpt>
      <trkpt lat="46.17439" lon="3.42985">
        <ele>304.23</ele>
        <time>2020-06-07T08:35:07Z</time>
      </trkpt>
      <trkpt lat="46.17475" lon="3.4302">
        <ele>309.5</ele>
        <time>2020-06-07T08:35:27Z</time>
      </trkpt>
      <trkpt lat="46.17511" lon="3.43047">
        <ele>312.22</ele>
        <time>2020-06-07T08:35:43Z</time>
      </trkpt>
      <trkpt lat="46.17543" lon="3.43076">
        <ele>313.24</ele>
        <time>2020-06-07T08:35:55Z</time>
      </trkpt>
      <trkpt lat="46.17579" lon="3.43115">
        <ele>315.52</ele>
        <time>2020-06-07T08:36:11Z</time>
      </trkpt>
      <trkpt lat="46.1761" lon="3.43146">
        <ele>319.13</ele>
        <time>2020-06-07T08:36:27Z</time>
      </trkpt>
      <trkpt lat="46.17643" lon="3.43169">
        <ele>320.45</ele>
        <time>2020-06-07T08:36:39Z</time>
      </trkpt>
      <trkpt lat="46.17671" lon="3.43202">
        <ele>323.15</ele>
        <time>2020-06-07T08:36:55Z</time>
      </trkpt>
      <trkpt lat="46.17696" lon="3.43152">
        <ele>326.31</ele>
        <time>2020-06-07T08:37:19Z</time>
      </trkpt>
      <trkpt lat="46.17715" lon="3.43101">
        <ele>331.61</ele>
        <time>2020-06-07T08:37:35Z</time>
      </trkpt>
      <trkpt lat="46.17738" lon="3.43049">
        <ele>333.03</ele>
        <time>2020-06-07T08:37:51Z</time>
      </trkpt>
      <trkpt lat="46.17716" lon="3.43008">
        <ele>334.23</ele>
        <time>2020-06-07T08:38:07Z</time>
      </trkpt>
      <trkpt lat="46.17681" lon="3.42963">
        <ele>333.64</ele>
        <time>2020-06-07T08:38:23Z</time>
      </trkpt>
      <trkpt lat="46.17642" lon="3.42921">
        <ele>332.24</ele>
        <time>2020-06-07T08:39:11Z</time>
      </trkpt>
      <trkpt lat="46.17594" lon="3.42897">
        <ele>321.97</ele>
        <time>2020-06-07T08:39:27Z</time>
      </trkpt>
      <trkpt lat="46.17555" lon="3.42876">
        <ele>320.72</ele>
        <time>2020-06-07T08:39:39Z</time>
      </trkpt>
      <trkpt lat="46.17513" lon="3.4284">
        <ele>306.45</ele>
        <time>2020-06-07T08:39:51Z</time>
      </trkpt>
      <trkpt lat="46.17476" lon="3.42801">
        <ele>306.28</ele>
        <time>2020-06-07T08:40:07Z</time>
      </trkpt>
      <trkpt lat="46.17439" lon="3.42759">
        <ele>304.8</ele>
        <time>2020-06-07T08:40:23Z</time>
      </trkpt>
      <trkpt lat="46.174" lon="3.42726">
        <ele>304.5</ele>
        <time>2020-06-07T08:40:39Z</time>
      </trkpt>
      <trkpt lat="46.17365" lon="3.427">
        <ele>306.72</ele>
        <time>2020-06-07T08:40:55Z</time>
      </trkpt>
      <trkpt lat="46.17337" lon="3.42663">
        <ele>306.89</ele>
        <time>2020-06-07T08:41:07Z</time>
      </trkpt>
      <trkpt lat="46.17302" lon="3.42637">
        <ele>307.26</ele>
        <time>2020-06-07T08:41:19Z</time>
      </trkpt>
      <trkpt lat="46.17267" lon="3.42604">
        <ele>303.65</ele>
        <time>2020-06-07T08:41:31Z</time>
      </trkpt>
      <trkpt lat="46.1723" lon="3.42585">
        <ele>299.09</ele>
        <time>2020-06-07T08:41:43Z</time>
      </trkpt>
      <trkpt lat="46.17189" lon="3.42553">
        <ele>295.33</ele>
        <time>2020-06-07T08:41:59Z</time>
      </trkpt>
      <trkpt lat="46.1716" lon="3.42521">
        <ele>293.57</ele>
        <time>2020-06-07T08:42:11Z</time>
      </trkpt>
      <trkpt lat="46.1713" lon="3.42492">
        <ele>286.87</ele>
        <time>2020-06-07T08:42:23Z</time>
      </trkpt>
      <trkpt lat="46.17094" lon="3.42465">
        <ele>284.15</ele>
        <time>2020-06-07T08:42:35Z</time>
      </trkpt>
      <trkpt lat="46.17058" lon="3.42435">
        <ele>285.83</ele>
        <time>2020-06-07T08:42:51Z</time>
      </trkpt>
      <trkpt lat="46.17029" lon="3.42396">
        <ele>280.37</ele>
        <time>2020-06-07T08:43:03Z</time>
      </trkpt>
      <trkpt lat="46.16997" lon="3.42366">
        <ele>277.82</ele>
        <time>2020-06-07T08:43:19Z</time>
      </trkpt>
      <trkpt lat="46.16968" lon="3.42322">
        <ele>282.41</ele>
        <time>2020-06-07T08:43:35Z</time>
      </trkpt>
      <trkpt lat="46.16941" lon="3.42285">
        <ele>283.41</ele>
        <time>2020-06-07T08:43:51Z</time>
      </trkpt>
      <trkpt lat="46.16908" lon="3.4225">
        <ele>283.06</ele>
        <time>2020-06-07T08:44:03Z</time>
      </trkpt>
      <trkpt lat="46.16876" lon="3.42222">
        <ele>267.97</ele>
        <time>2020-06-07T08:44:15Z</time>
      </trkpt>
      <trkpt lat="46.16839" lon="3.42192">
        <ele>265.59</ele>
        <time>2020-06-07T08:44:31Z</time>
      </trkpt>
      <trkpt lat="46.16801" lon="3.42154">
        <ele>260.34</ele>
        <time>2020-06-07T08:44:47Z</time>
      </trkpt>
      <trkpt lat="46.16826" lon="3.42098">
        <ele>256.59</ele>
        <time>2020-06-07T08:45:07Z</time>
      </trkpt>
      <trkpt lat="46.16853" lon="3.42051">
        <ele>251.58</ele>
        <time>2020-06-07T08:45:23Z</time>
      </trkpt>
      <trkpt lat="46.16876" lon="3.41999">
        <ele>259.4</ele>
        <time>2020-06-07T08:45:39Z</time>
      </trkpt>
      <trkpt lat="46.16906" lon="3.41961">
        <ele>268.97</ele>
        <time>2020-06-07T08:45:55Z</time>
      </trkpt>
      <trkpt lat="46.16932" lon="3.41921">
        <ele>267.09</ele>
        <time>2020-06-07T08:46:07Z</time>
      </trkpt>
      <trkpt lat="46.16963" lon="3.4187">
        <ele>265.65</ele>
        <time>2020-06-07T08:46:23Z</time>
      </trkpt>
      <trkpt lat="46.1699" lon="3.41824">
        <ele>258.17</ele>
        <time>2020-06-07T08:46:35Z</time>
      </trkpt>
      <trkpt lat="46.17017" lon="3.41773">
        <ele>255.74</ele>
        <time>2020-06-07T08:46:51Z</time>
      </trkpt>
      <trkpt lat="46.17057" lon="3.41751">
        <ele>256.2</ele>
        <time>2020-06-07T08:47:07Z</time>
      </trkpt>
      <trkpt lat="46.17088" lon="3.41724">
        <ele>257.73</ele>
        <time>2020-06-07T08:47:19Z</time>
      </trkpt>
      <trkpt lat="46.17124" lon="3.41706">
        <ele>253.15</ele>
        <time>2020-06-07T08:47:31Z</time>
      </trkpt>
      <trkpt lat="46.17158" lon="3.41681">
        <ele>251.93</ele>
        <time>2020-06-07T08:47:43Z</time>
      </trkpt>
      <trkpt lat="46.17191" lon="3.41658">
        <ele>248.56</ele>
        <time>2020-06-07T08:47:55Z</time>
      </trkpt>
      <trkpt lat="46.17236" lon="3.41624">
        <ele>245.7</ele>
        <time>2020-06-07T08:48:07Z</time>
      </trkpt>
      <trkpt lat="46.17271" lon="3.41604">
        <ele>240.75</ele>
        <time>2020-06-07T08:48:19Z</time>
      </trkpt>
      <trkpt lat="46.17315" lon="3.41571">
        <ele>246.97</ele>
        <time>2020-06-07T08:48:35Z</time>
      </trkpt>
      <trkpt lat="46.17347" lon="3.41538">
        <ele>247.8</ele>
        <time>2020-06-07T08:48:51Z</time>
      </trkpt>
      <trkpt lat="46.17389" lon="3.41518">
        <ele>251.38</ele>
        <time>2020-06-07T08:49:03Z</time>
      </trkpt>
      <trkpt lat="46.17424" lon="3.41493">
        <ele>249.34</ele>
        <time>2020-06-07T08:49:15Z</time>
      </trkpt>
      <trkpt lat="46.17473" lon="3.41464">
        <ele>247.94</ele>
        <time>2020-06-07T08:49:27Z</time>
      </trkpt>
      <trkpt lat="46.1752" lon="3.41455">
        <ele>254.89</ele>
        <time>2020-06-07T08:49:47Z</time>
      </trkpt>
      <trkpt lat="46.17564" lon="3.41451">
        <ele>258.51</ele>
        <time>2020-06-07T08:50:03Z</time>
      </trkpt>
      <trkpt lat="46.17601" lon="3.41448">
        <ele>258.13</ele>
        <time>2020-06-07T08:50:15Z</time>
      </trkpt>
      <trkpt lat="46.17643" lon="3.41448">
        <ele>257.44</ele>
        <time>2020-06-07T08:50:31Z</time>
      </trkpt>
      <trkpt lat="46.17689" lon="3.41449">
        <ele>259.58</ele>
        <time>2020-06-07T08:50:43Z</time>
      </trkpt>
      <trkpt lat="46.17733" lon="3.41467">
        <ele>253.23</ele>
        <time>2020-06-07T08:50:59Z</time>
      </trkpt>
      <trkpt lat="46.17781" lon="3.41481">
        <ele>256.8</ele>
        <time>2020-06-07T08:51:15Z</time>
      </trkpt>
      <trkpt lat="46.17823" lon="3.41485">
        <ele>249.99</ele>
        <time>2020-06-07T08:51:27Z</time>
      </trkpt>
      <trkpt lat="46.1787" lon="3.41504">
        <ele>255.91</ele>
        <time>2020-06-07T08:51:39Z</time>
      </trkpt>
      <trkpt lat="46.17887" lon="3.41553">
        <ele>246.37</ele>
        <time>2020-06-07T08:51:55Z</time>
      </trkpt>
      <trkpt lat="46.17885" lon="3.41605">
        <ele>248.56</ele>
        <time>2020-06-07T08:52:11Z</time>
      </trkpt>
      <trkpt lat="46.17897" lon="3.4166">
        <ele>259.6</ele>
        <time>2020-06-07T08:52:27Z</time>
      </trkpt>
      <trkpt lat="46.17934" lon="3.41665">
        <ele>262.65</ele>
        <time>2020-06-07T08:52:39Z</time>
      </trkpt>
      <trkpt lat="46.17967" lon="3.41688">
        <ele>263.55</ele>
        <time>2020-06-07T08:52:51Z</time>
      </trkpt>
      <trkpt lat="46.17937" lon="3.41718">
        <ele>262.09</ele>
        <time>2020-06-07T08:53:19Z</time>
      </trkpt>
      <trkpt lat="46.17929" lon="3.41783">
        <ele>281.33</ele>
        <time>2020-06-07T08:53:47Z</time>
      </trkpt>
      <trkpt lat="46.17919" lon="3.41845">
        <ele>290.05</ele>
        <time>2020-06-07T08:54:07Z</time>
      </trkpt>
      <trkpt lat="46.17912" lon="3.41896">
        <ele>287.96</ele>
        <time>2020-06-07T08:54:19Z</time>
      </trkpt>
      <trkpt lat="46.17903" lon="3.41957">
        <ele>288.57</ele>
        <time>2020-06-07T08:54:35Z</time>
      </trkpt>
      <trkpt lat="46.17897" lon="3.42012">
        <ele>296.45</ele>
        <time>2020-06-07T08:54:51Z</time>
      </trkpt>
      <trkpt lat="46.17883" lon="3.42067">
        <ele>295.13</ele>
        <time>2020-06-07T08:55:07Z</time>
      </trkpt>
      <trkpt lat="46.17845" lon="3.42081">
        <ele>302.7</ele>
        <time>2020-06-07T08:55:23Z</time>
      </trkpt>
      <trkpt lat="46.17813" lon="3.42134">
        <ele>304.48</ele>
        <time>2020-06-07T08:55:43Z</time>
      </trkpt>
      <trkpt lat="46.17789" lon="3.42176">
        <ele>306.17</ele>
        <time>2020-06-07T08:55:59Z</time>
      </trkpt>
      <trkpt lat="46.17764" lon="3.42217">
        <ele>308.93</ele>
        <time>2020-06-07T08:56:19Z</time>
      </trkpt>
      <trkpt lat="46.17735" lon="3.42264">
        <ele>316.84</ele>
        <time>2020-06-07T08:56:35Z</time>
      </trkpt>
      <trkpt lat="46.17709" lon="3.423">
        <ele>318.08</ele>
        <time>2020-06-07T08:56:47Z</time>
      </trkpt>
      <trkpt lat="46.17684" lon="3.42351">
        <ele>317.25</ele>
        <time>2020-06-07T08:57:03Z</time>
      </trkpt>
      <trkpt lat="46.17658" lon="3.42398">
        <ele>321.14</ele>
        <time>2020-06-07T08:57:19Z</time>
      </trkpt>
      <trkpt lat="46.17673" lon="3.42449">
        <ele>324.64</ele>
        <time>2020-06-07T08:57:43Z</time>
      </trkpt>
      <trkpt lat="46.17709" lon="3.4246">
        <ele>330.39</ele>
        <time>2020-06-07T08:57:59Z</time>
      </trkpt>
      <trkpt lat="46.17746" lon="3.42475">
        <ele>328.25</ele>
        <time>2020-06-07T08:58:15Z</time>
      </trkpt>
      <trkpt lat="46.17786" lon="3.42494">
        <ele>315.38</ele>
        <time>2020-06-07T08:58:27Z</time>
      </trkpt>
      <trkpt lat="46.17823" lon="3.42494">
        <ele>317.31</ele>
        <time>2020-06-07T08:58:39Z</time>
      </trkpt>
      <trkpt lat="46.17867" lon="3.42497">
        <ele>322.69</ele>
        <time>2020-06-07T08:58:55Z</time>
      </trkpt>
      <trkpt lat="46.17906" lon="3.42513">
        <ele>321.71</ele>
        <time>2020-06-07T08:59:11Z</time>
      </trkpt>
      <trkpt lat="46.17946" lon="3.42498">
        <ele>319.18</ele>
        <time>2020-06-07T08:59:23Z</time>
      </trkpt>
      <trkpt lat="46.17984" lon="3.42496">
        <ele>315.08</ele>
        <time>2020-06-07T08:59:35Z</time>
      </trkpt>
      <trkpt lat="46.18018" lon="3.42518">
        <ele>314.02</ele>
        <time>2020-06-07T08:59:47Z</time>
      </trkpt>
      <trkpt lat="46.18066" lon="3.42538">
        <ele>305.64</ele>
        <time>2020-06-07T09:00:03Z</time>
      </trkpt>
      <trkpt lat="46.18112" lon="3.42545">
        <ele>312.26</ele>
        <time>2020-06-07T09:00:23Z</time>
      </trkpt>
      <trkpt lat="46.18139" lon="3.42509">
        <ele>309.68</ele>
        <time>2020-06-07T09:00:39Z</time>
      </trkpt>
      <trkpt lat="46.1816" lon="3.42448">
        <ele>305.01</ele>
        <time>2020-06-07T09:00:55Z</time>
      </trkpt>
      <trkpt lat="46.18177" lon="3.42399">
        <ele>300.8</ele>
        <time>2020-06-07T09:01:07Z</time>
      </trkpt>
      <trkpt lat="46.18195" lon="3.42338">
        <ele>298.18</ele>
        <time>2020-06-07T09:01:23Z</time>
      </trkpt>
      <trkpt lat="46.18211" lon="3.42278">
        <ele>294.89</ele>
        <time>2020-06-07T09:01:39Z</time>
      </trkpt>
      <trkpt lat="46.18253" lon="3.42296">
        <ele>290.98</ele>
        <time>2020-06-07T09:01:55Z</time>
      </trkpt>
      <trkpt lat="46.18293" lon="3.42328">
        <ele>287.95</ele>
        <time>2020-06-07T09:02:11Z</time>
      </trkpt>
      <trkpt lat="46.18334" lon="3.42359">
        <ele>286.37</ele>
        <time>2020-06-07T09:02:27Z</time>
      </trkpt>
      <trkpt lat="46.18372" lon="3.42387">
        <ele>287.44</ele>
        <time>2020-06-07T09:02:43Z</time>
      </trkpt>
      <trkpt lat="46.1841" lon="3.42411">
        <ele>290.15</ele>
        <time>2020-06-07T09:02:59Z</time>
      </trkpt>
      <trkpt lat="46.18445" lon="3.42434">
        <ele>293.2</ele>
        <time>2020-06-07T09:03:15Z</time>
      </trkpt>
      <trkpt lat="46.18484" lon="3.42463">
        <ele>293.53</ele>
        <time>2020-06-07T09:03:31Z</time>
      </trkpt>
      <trkpt lat="46.18522" lon="3.42501">
        <ele>293.55</ele>
        <time>2020-06-07T09:03:47Z</time>
      </trkpt>
      <trkpt lat="46.18554" lon="3.42545">
        <ele>293.55</ele>
        <time>2020-06-07T09:04:03Z</time>
      </trkpt>
      <trkpt lat="46.18579" lon="3.42595">
        <ele>296.14</ele>
        <time>2020-06-07T09:04:19Z</time>
      </trkpt>
      <trkpt lat="46.1859" lon="3.42655">
        <ele>292.85</ele>
        <time>2020-06-07T09:04:35Z</time>
      </trkpt>
      <trkpt lat="46.18616" lon="3.42718">
        <ele>295.91</ele>
        <time>2020-06-07T09:04:51Z</time>
      </trkpt>
      <trkpt lat="46.1864" lon="3.42759">
        <ele>303.69</ele>
        <time>2020-06-07T09:05:07Z</time>
      </trkpt>
      <trkpt lat="46.18655" lon="3.42812">
        <ele>298.94</ele>
        <time>2020-06-07T09:05:19Z</time>
      </trkpt>
      <trkpt lat="46.18643" lon="3.42863">
        <ele>305.31</ele>
        <time>2020-06-07T09:05:35Z</time>
      </trkpt>
      <trkpt lat="46.18625" lon="3.42922">
        <ele>314.99</ele>
        <time>2020-06-07T09:05:55Z</time>
      </trkpt>
      <trkpt lat="46.18614" lon="3.42973">
        <ele>323.09</ele>
        <time>2020-06-07T09:06:11Z</time>
      </trkpt>
      <trkpt lat="46.18612" lon="3.43039">
        <ele>323.55</ele>
        <time>2020-06-07T09:06:27Z</time>
      </trkpt>
      <trkpt lat="46.18635" lon="3.43086">
        <ele>316.08</ele>
        <time>2020-06-07T09:06:39Z</time>
      </trkpt>
      <trkpt lat="46.18668" lon="3.43112">
        <ele>317.74</ele>
        <time>2020-06-07T09:13:15Z</time>
      </trkpt>
      <trkpt lat="46.18709" lon="3.43125">
        <ele>316.16</ele>
        <time>2020-06-07T09:13:35Z</time>
      </trkpt>
      <trkpt lat="46.18761" lon="3.43133">
        <ele>316.53</ele>
        <time>2020-06-07T09:13:51Z</time>
      </trkpt>
      <trkpt lat="46.18801" lon="3.43137">
        <ele>310.17</ele>
        <time>2020-06-07T09:14:07Z</time>
      </trkpt>
      <trkpt lat="46.18836" lon="3.43149">
        <ele>319.05</ele>
        <time>2020-06-07T09:14:19Z</time>
      </trkpt>
      <trkpt lat="46.18862" lon="3.43201">
        <ele>313.68</ele>
        <time>2020-06-07T09:14:31Z</time>
      </trkpt>
      <trkpt lat="46.18878" lon="3.43256">
        <ele>316.32</ele>
        <time>2020-06-07T09:14:47Z</time>
      </trkpt>
      <trkpt lat="46.18903" lon="3.43315">
        <ele>317.73</ele>
        <time>2020-06-07T09:15:03Z</time>
      </trkpt>
      <trkpt lat="46.18929" lon="3.43371">
        <ele>317.33</ele>
        <time>2020-06-07T09:15:19Z</time>
      </trkpt>
      <trkpt lat="46.18918" lon="3.43431">
        <ele>317.53</ele>
        <time>2020-06-07T09:15:35Z</time>
      </trkpt>
      <trkpt lat="46.18891" lon="3.43473">
        <ele>319.03</ele>
        <time>2020-06-07T09:15:51Z</time>
      </trkpt>
      <trkpt lat="46.18872" lon="3.43522">
        <ele>317.32</ele>
        <time>2020-06-07T09:16:03Z</time>
      </trkpt>
      <trkpt lat="46.18842" lon="3.43573">
        <ele>323.57</ele>
        <time>2020-06-07T09:16:19Z</time>
      </trkpt>
      <trkpt lat="46.18826" lon="3.43628">
        <ele>327.52</ele>
        <time>2020-06-07T09:16:35Z</time>
      </trkpt>
      <trkpt lat="46.18806" lon="3.43684">
        <ele>323.44</ele>
        <time>2020-06-07T09:16:47Z</time>
      </trkpt>
      <trkpt lat="46.18779" lon="3.43727">
        <ele>320.59</ele>
        <time>2020-06-07T09:16:59Z</time>
      </trkpt>
      <trkpt lat="46.18765" lon="3.43787">
        <ele>319.22</ele>
        <time>2020-06-07T09:17:15Z</time>
      </trkpt>
      <trkpt lat="46.18746" lon="3.43835">
        <ele>316.96</ele>
        <time>2020-06-07T09:17:31Z</time>
      </trkpt>
      <trkpt lat="46.18734" lon="3.4389">
        <ele>310.1</ele>
        <time>2020-06-07T09:17:43Z</time>
      </trkpt>
      <trkpt lat="46.1872" lon="3.43944">
        <ele>310.74</ele>
        <time>2020-06-07T09:17:55Z</time>
      </trkpt>
      <trkpt lat="46.18707" lon="3.43994">
        <ele>309.7</ele>
        <time>2020-06-07T09:18:11Z</time>
      </trkpt>
      <trkpt lat="46.18696" lon="3.44052">
        <ele>309.07</ele>
        <time>2020-06-07T09:18:23Z</time>
      </trkpt>
      <trkpt lat="46.18688" lon="3.44121">
        <ele>308.59</ele>
        <time>2020-06-07T09:18:39Z</time>
      </trkpt>
      <trkpt lat="46.18682" lon="3.44173">
        <ele>306.73</ele>
        <time>2020-06-07T09:18:51Z</time>
      </trkpt>
      <trkpt lat="46.18661" lon="3.4422">
        <ele>305.98</ele>
        <time>2020-06-07T09:19:35Z</time>
      </trkpt>
      <trkpt lat="46.18647" lon="3.44272">
        <ele>303.74</ele>
        <time>2020-06-07T09:19:47Z</time>
      </trkpt>
      <trkpt lat="46.18645" lon="3.44332">
        <ele>299.94</ele>
        <time>2020-06-07T09:19:59Z</time>
      </trkpt>
      <trkpt lat="46.1863" lon="3.44384">
        <ele>304.79</ele>
        <time>2020-06-07T09:20:11Z</time>
      </trkpt>
      <trkpt lat="46.18599" lon="3.4443">
        <ele>305.49</ele>
        <time>2020-06-07T09:20:27Z</time>
      </trkpt>
      <trkpt lat="46.18572" lon="3.4447">
        <ele>291.08</ele>
        <time>2020-06-07T09:20:43Z</time>
      </trkpt>
      <trkpt lat="46.18559" lon="3.44523">
        <ele>276.88</ele>
        <time>2020-06-07T09:20:51Z</time>
      </trkpt>
      <trkpt lat="46.18532" lon="3.44587">
        <ele>272.47</ele>
        <time>2020-06-07T09:21:07Z</time>
      </trkpt>
      <trkpt lat="46.18516" lon="3.44652">
        <ele>265.48</ele>
        <time>2020-06-07T09:21:23Z</time>
      </trkpt>
      <trkpt lat="46.18502" lon="3.44709">
        <ele>275.71</ele>
        <time>2020-06-07T09:21:35Z</time>
      </trkpt>
      <trkpt lat="46.18472" lon="3.44771">
        <ele>278.38</ele>
        <time>2020-06-07T09:21:51Z</time>
      </trkpt>
      <trkpt lat="46.1846" lon="3.44832">
        <ele>273.6</ele>
        <time>2020-06-07T09:22:07Z</time>
      </trkpt>
      <trkpt lat="46.18449" lon="3.44881">
        <ele>278.87</ele>
        <time>2020-06-07T09:22:19Z</time>
      </trkpt>
      <trkpt lat="46.18451" lon="3.44938">
        <ele>270.43</ele>
        <time>2020-06-07T09:22:35Z</time>
      </trkpt>
      <trkpt lat="46.1844" lon="3.44997">
        <ele>276.32</ele>
        <time>2020-06-07T09:22:51Z</time>
      </trkpt>
      <trkpt lat="46.18422" lon="3.45046">
        <ele>280.74</ele>
        <time>2020-06-07T09:23:03Z</time>
      </trkpt>
      <trkpt lat="46.18384" lon="3.45104">
        <ele>263.61</ele>
        <time>2020-06-07T09:23:19Z</time>
      </trkpt>
      <trkpt lat="46.18351" lon="3.45133">
        <ele>270.13</ele>
        <time>2020-06-07T09:23:35Z</time>
      </trkpt>
      <trkpt lat="46.18309" lon="3.45122">
        <ele>266.06</ele>
        <time>2020-06-07T09:23:47Z</time>
      </trkpt>
      <trkpt lat="46.18273" lon="3.45106">
        <ele>266.34</ele>
        <time>2020-06-07T09:24:03Z</time>
      </trkpt>
      <trkpt lat="46.18234" lon="3.45067">
        <ele>265.67</ele>
        <time>2020-06-07T09:24:19Z</time>
      </trkpt>
      <trkpt lat="46.18216" lon="3.45019">
        <ele>273.76</ele>
        <time>2020-06-07T09:24:35Z</time>
      </trkpt>
      <trkpt lat="46.18203" lon="3.44965">
        <ele>276.78</ele>
        <time>2020-06-07T09:24:51Z</time>
      </trkpt>
      <trkpt lat="46.18195" lon="3.44903">
        <ele>276.5</ele>
        <time>2020-06-07T09:25:03Z</time>
      </trkpt>
      <trkpt lat="46.18171" lon="3.4486">
        <ele>290.08</ele>
        <time>2020-06-07T09:25:19Z</time>
      </trkpt>
      <trkpt lat="46.18149" lon="3.44816">
        <ele>288.55</ele>
        <time>2020-06-07T09:25:31Z</time>
      </trkpt>
      <trkpt lat="46.18127" lon="3.44767">
        <ele>281.59</ele>
        <time>2020-06-07T09:25:47Z</time>
      </trkpt>
      <trkpt lat="46.18104" lon="3.44716">
        <ele>290.44</ele>
        <time>2020-06-07T09:26:07Z</time>
      </trkpt>
      <trkpt lat="46.18096" lon="3.44665">
        <ele>295.04</ele>
        <time>2020-06-07T09:26:27Z</time>
      </trkpt>
      <trkpt lat="46.18076" lon="3.44615">
        <ele>327.82</ele>
        <time>2020-06-07T09:27:31Z</time>
      </trkpt>
      <trkpt lat="46.18036" lon="3.44638">
        <ele>325.48</ele>
        <time>2020-06-07T09:28:43Z</time>
      </trkpt>
      <trkpt lat="46.17992" lon="3.44647">
        <ele>322.93</ele>
        <time>2020-06-07T09:28:55Z</time>
      </trkpt>
      <trkpt lat="46.17957" lon="3.44658">
        <ele>312.14</ele>
        <time>2020-06-07T09:29:07Z</time>
      </trkpt>
      <trkpt lat="46.1792" lon="3.44656">
        <ele>315.4</ele>
        <time>2020-06-07T09:29:19Z</time>
      </trkpt>
      <trkpt lat="46.17883" lon="3.44678">
        <ele>316.07</ele>
        <time>2020-06-07T09:29:31Z</time>
      </trkpt>
      <trkpt lat="46.17848" lon="3.44695">
        <ele>317.37</ele>
        <time>2020-06-07T09:29:43Z</time>
      </trkpt>
      <trkpt lat="46.17804" lon="3.44703">
        <ele>320.13</ele>
        <time>2020-06-07T09:29:55Z</time>
      </trkpt>
      <trkpt lat="46.17783" lon="3.44651">
        <ele>315.63</ele>
        <time>2020-06-07T09:30:11Z</time>
      </trkpt>
      <trkpt lat="46.17792" lon="3.44596">
        <ele>314.85</ele>
        <time>2020-06-07T09:30:27Z</time>
      </trkpt>
      <trkpt lat="46.17814" lon="3.44543">
        <ele>315.53</ele>
        <time>2020-06-07T09:30:43Z</time>
      </trkpt>
      <trkpt lat="46.17831" lon="3.44482">
        <ele>313.04</ele>
        <time>2020-06-07T09:30:59Z</time>
      </trkpt>
      <trkpt lat="46.17812" lon="3.44428">
        <ele>309.89</ele>
        <time>2020-06-07T09:31:15Z</time>
      </trkpt>
      <trkpt lat="46.17835" lon="3.44388">
        <ele>319.15</ele>
        <time>2020-06-07T09:31:35Z</time>
      </trkpt>
      <trkpt lat="46.17877" lon="3.44393">
        <ele>327.17</ele>
        <time>2020-06-07T09:31:55Z</time>
      </trkpt>
      <trkpt lat="46.17916" lon="3.44406">
        <ele>326.86</ele>
        <time>2020-06-07T09:32:11Z</time>
      </trkpt>
      <trkpt lat="46.17959" lon="3.44386">
        <ele>332.12</ele>
        <time>2020-06-07T09:32:31Z</time>
      </trkpt>
      <trkpt lat="46.17995" lon="3.44351">
        <ele>338.55</ele>
        <time>2020-06-07T09:32:51Z</time>
      </trkpt>
      <trkpt lat="46.18002" lon="3.44296">
        <ele>342.41</ele>
        <time>2020-06-07T09:33:11Z</time>
      </trkpt>
      <trkpt lat="46.18015" lon="3.44237">
        <ele>342.44</ele>
        <time>2020-06-07T09:33:31Z</time>
      </trkpt>
      <trkpt lat="46.17998" lon="3.44185">
        <ele>355.2</ele>
        <time>2020-06-07T09:33:55Z</time>
      </trkpt>
      <trkpt lat="46.17961" lon="3.44168">
        <ele>360.82</ele>
        <time>2020-06-07T09:34:11Z</time>
      </trkpt>
      <trkpt lat="46.17944" lon="3.44121">
        <ele>360.87</ele>
        <time>2020-06-07T09:34:27Z</time>
      </trkpt>
      <trkpt lat="46.17938" lon="3.44067">
        <ele>364.07</ele>
        <time>2020-06-07T09:34:43Z</time>
      </trkpt>
      <trkpt lat="46.17906" lon="3.44026">
        <ele>366.87</ele>
        <time>2020-06-07T09:35:03Z</time>
      </trkpt>
      <trkpt lat="46.17865" lon="3.43995">
        <ele>363.02</ele>
        <time>2020-06-07T09:35:19Z</time>
      </trkpt>
      <trkpt lat="46.17817" lon="3.43969">
        <ele>358.77</ele>
        <time>2020-06-07T09:35:35Z</time>
      </trkpt>
      <trkpt lat="46.17778" lon="3.43974">
        <ele>356.07</ele>
        <time>2020-06-07T09:35:51Z</time>
      </trkpt>
      <trkpt lat="46.17734" lon="3.43999">
        <ele>363.16</ele>
        <time>2020-06-07T09:36:07Z</time>
      </trkpt>
      <trkpt lat="46.17695" lon="3.44021">
        <ele>362.28</ele>
        <time>2020-06-07T09:36:23Z</time>
      </trkpt>
      <trkpt lat="46.17656" lon="3.44061">
        <ele>363.92</ele>
        <time>2020-06-07T09:36:39Z</time>
      </trkpt>
      <trkpt lat="46.17615" lon="3.44089">
        <ele>361.21</ele>
        <time>2020-06-07T09:36:55Z</time>
      </trkpt>
      <trkpt lat="46.17593" lon="3.44147">
        <ele>365.34</ele>
        <time>2020-06-07T09:37:11Z</time>
      </trkpt>
      <trkpt lat="46.17574" lon="3.44201">
        <ele>364.67</ele>
        <time>2020-06-07T09:37:27Z</time>
      </trkpt>
      <trkpt lat="46.17552" lon="3.44252">
        <ele>372.67</ele>
        <time>2020-06-07T09:37:43Z</time>
      </trkpt>
      <trkpt lat="46.17527" lon="3.44294">
        <ele>373.91</ele>
        <time>2020-06-07T09:37:59Z</time>
      </trkpt>
      <trkpt lat="46.17502" lon="3.44334">
        <ele>377.93</ele>
        <time>2020-06-07T09:38:15Z</time>
      </trkpt>
      <trkpt lat="46.17477" lon="3.44373">
        <ele>380.92</ele>
        <time>2020-06-07T09:38:31Z</time>
      </trkpt>
      <trkpt lat="46.17497" lon="3.44428">
        <ele>380.8</ele>
        <time>2020-06-07T09:38:51Z</time>
      </trkpt>
      <trkpt lat="46.17486" lon="3.44486">
        <ele>375.66</ele>
        <time>2020-06-07T09:39:07Z</time>
      </trkpt>
      <trkpt lat="46.17464" lon="3.44545">
        <ele>373.44</ele>
        <time>2020-06-07T09:39:23Z</time>
      </trkpt>
      <trkpt lat="46.17425" lon="3.44565">
        <ele>377.55</ele>
        <time>2020-06-07T09:39:39Z</time>
      </trkpt>
      <trkpt lat="46.17395" lon="3.44607">
        <ele>373.78</ele>
        <time>2020-06-07T09:39:55Z</time>
      </trkpt>
      <trkpt lat="46.17407" lon="3.44668">
        <ele>369.48</ele>
        <time>2020-06-07T09:40:11Z</time>
      </trkpt>
      <trkpt lat="46.1743" lon="3.44718">
        <ele>360.83</ele>
        <time>2020-06-07T09:40:27Z</time>
      </trkpt>
      <trkpt lat="46.17403" lon="3.44765">
        <ele>359.54</ele>
        <time>2020-06-07T09:40:47Z</time>
      </trkpt>
      <trkpt lat="46.17371" lon="3.44799">
        <ele>363.78</ele>
        <time>2020-06-07T09:41:03Z</time>
      </trkpt>
      <trkpt lat="46.1734" lon="3.44828">
        <ele>369.22</ele>
        <time>2020-06-07T09:41:19Z</time>
      </trkpt>
      <trkpt lat="46.17304" lon="3.4483">
        <ele>375.69</ele>
        <time>2020-06-07T09:41:35Z</time>
      </trkpt>
      <trkpt lat="46.17258" lon="3.4483">
        <ele>377.18</ele>
        <time>2020-06-07T09:41:51Z</time>
      </trkpt>
      <trkpt lat="46.17217" lon="3.44823">
        <ele>370.33</ele>
        <time>2020-06-07T09:42:03Z</time>
      </trkpt>
      <trkpt lat="46.17246" lon="3.44858">
        <ele>362.8</ele>
        <time>2020-06-07T09:42:43Z</time>
      </trkpt>
      <trkpt lat="46.17285" lon="3.44873">
        <ele>366.32</ele>
        <time>2020-06-07T09:42:59Z</time>
      </trkpt>
      <trkpt lat="46.17323" lon="3.44872">
        <ele>350.64</ele>
        <time>2020-06-07T09:43:11Z</time>
      </trkpt>
      <trkpt lat="46.17369" lon="3.44889">
        <ele>350.5</ele>
        <time>2020-06-07T09:43:55Z</time>
      </trkpt>
      <trkpt lat="46.17409" lon="3.449">
        <ele>347.63</ele>
        <time>2020-06-07T09:44:07Z</time>
      </trkpt>
      <trkpt lat="46.17445" lon="3.44914">
        <ele>336.38</ele>
        <time>2020-06-07T09:44:19Z</time>
      </trkpt>
      <trkpt lat="46.17473" lon="3.44966">
        <ele>332.96</ele>
        <time>2020-06-07T09:44:31Z</time>
      </trkpt>
      <trkpt lat="46.17493" lon="3.45014">
        <ele>339.98</ele>
        <time>2020-06-07T09:44:47Z</time>
      </trkpt>
      <trkpt lat="46.17523" lon="3.45055">
        <ele>329.6</ele>
        <time>2020-06-07T09:44:59Z</time>
      </trkpt>
      <trkpt lat="46.17541" lon="3.45102">
        <ele>320.81</ele>
        <time>2020-06-07T09:45:15Z</time>
      </trkpt>
      <trkpt lat="46.17506" lon="3.45149">
        <ele>314.19</ele>
        <time>2020-06-07T09:45:35Z</time>
      </trkpt>
      <trkpt lat="46.1747" lon="3.45173">
        <ele>321.12</ele>
        <time>2020-06-07T09:45:51Z</time>
      </trkpt>
      <trkpt lat="46.17433" lon="3.45184">
        <ele>317.84</ele>
        <time>2020-06-07T09:46:11Z</time>
      </trkpt>
      <trkpt lat="46.17418" lon="3.45128">
        <ele>316.56</ele>
        <time>2020-06-07T09:46:23Z</time>
      </trkpt>
      <trkpt lat="46.17413" lon="3.4507">
        <ele>317.8</ele>
        <time>2020-06-07T09:46:43Z</time>
      </trkpt>
      <trkpt lat="46.17409" lon="3.45008">
        <ele>316.02</ele>
        <time>2020-06-07T09:46:55Z</time>
      </trkpt>
      <trkpt lat="46.17372" lon="3.45005">
        <ele>328.97</ele>
        <time>2020-06-07T09:47:19Z</time>
      </trkpt>
      <trkpt lat="46.17334" lon="3.45013">
        <ele>330.52</ele>
        <time>2020-06-07T09:47:35Z</time>
      </trkpt>
      <trkpt lat="46.17291" lon="3.45003">
        <ele>324.49</ele>
        <time>2020-06-07T09:47:51Z</time>
      </trkpt>
      <trkpt lat="46.17252" lon="3.4501">
        <ele>320.08</ele>
        <time>2020-06-07T09:48:03Z</time>
      </trkpt>
      <trkpt lat="46.17213" lon="3.44981">
        <ele>314.51</ele>
        <time>2020-06-07T09:48:19Z</time>
      </trkpt>
      <trkpt lat="46.17173" lon="3.44954">
        <ele>307.82</ele>
        <time>2020-06-07T09:48:35Z</time>
      </trkpt>
      <trkpt lat="46.17133" lon="3.44925">
        <ele>316.19</ele>
        <time>2020-06-07T09:48:55Z</time>
      </trkpt>
      <trkpt lat="46.17102" lon="3.44956">
        <ele>329.97</ele>
        <time>2020-06-07T09:49:15Z</time>
      </trkpt>
      <trkpt lat="46.17088" lon="3.45005">
        <ele>339.51</ele>
        <time>2020-06-07T09:49:31Z</time>
      </trkpt>
      <trkpt lat="46.17079" lon="3.44949">
        <ele>346.83</ele>
        <time>2020-06-07T09:50:03Z</time>
      </trkpt>
      <trkpt lat="46.17086" lon="3.44898">
        <ele>356.14</ele>
        <time>2020-06-07T09:50:19Z</time>
      </trkpt>
      <trkpt lat="46.17075" lon="3.44846">
        <ele>356.16</ele>
        <time>2020-06-07T09:50:39Z</time>
      </trkpt>
      <trkpt lat="46.1707" lon="3.44792">
        <ele>366.22</ele>
        <time>2020-06-07T09:51:03Z</time>
      </trkpt>
      <trkpt lat="46.17051" lon="3.44746">
        <ele>376.65</ele>
        <time>2020-06-07T09:51:27Z</time>
      </trkpt>
      <trkpt lat="46.17008" lon="3.44736">
        <ele>384.43</ele>
        <time>2020-06-07T09:51:47Z</time>
      </trkpt>
      <trkpt lat="46.16967" lon="3.44754">
        <ele>385.99</ele>
        <time>2020-06-07T09:52:07Z</time>
      </trkpt>
      <trkpt lat="46.16951" lon="3.44815">
        <ele>380.15</ele>
        <time>2020-06-07T09:52:23Z</time>
      </trkpt>
      <trkpt lat="46.16933" lon="3.44868">
        <ele>377.8</ele>
        <time>2020-06-07T09:52:39Z</time>
      </trkpt>
      <trkpt lat="46.1691" lon="3.44921">
        <ele>385.7</ele>
        <time>2020-06-07T09:52:55Z</time>
      </trkpt>
      <trkpt lat="46.1689" lon="3.44977">
        <ele>388.78</ele>
        <time>2020-06-07T09:53:11Z</time>
      </trkpt>
      <trkpt lat="46.16854" lon="3.45018">
        <ele>387.45</ele>
        <time>2020-06-07T09:53:27Z</time>
      </trkpt>
      <trkpt lat="46.16819" lon="3.45047">
        <ele>387.7</ele>
        <time>2020-06-07T09:53:43Z</time>
      </trkpt>
      <trkpt lat="46.1678" lon="3.45054">
        <ele>380.44</ele>
        <time>2020-06-07T09:53:55Z</time>
      </trkpt>
      <trkpt lat="46.16729" lon="3.45051">
        <ele>373.35</ele>
        <time>2020-06-07T09:54:11Z</time>
      </trkpt>
      <trkpt lat="46.16684" lon="3.45044">
        <ele>370.32</ele>
        <time>2020-06-07T09:54:27Z</time>
      </trkpt>
      <trkpt lat="46.16646" lon="3.45036">
        <ele>362.5</ele>
        <time>2020-06-07T09:54:39Z</time>
      </trkpt>
      <trkpt lat="46.1663" lon="3.44989">
        <ele>360.33</ele>
        <time>2020-06-07T09:54:51Z</time>
      </trkpt>
      <trkpt lat="46.16595" lon="3.44961">
        <ele>359.92</ele>
        <time>2020-06-07T09:55:03Z</time>
      </trkpt>
      <trkpt lat="46.16554" lon="3.44965">
        <ele>376.05</ele>
        <time>2020-06-07T09:55:23Z</time>
      </trkpt>
      <trkpt lat="46.16518" lon="3.44986">
        <ele>376.21</ele>
        <time>2020-06-07T09:55:39Z</time>
      </trkpt>
      <trkpt lat="46.16486" lon="3.45023">
        <ele>383.83</ele>
        <time>2020-06-07T09:55:55Z</time>
      </trkpt>
      <trkpt lat="46.16449" lon="3.45045">
        <ele>382.16</ele>
        <time>2020-06-07T09:56:07Z</time>
      </trkpt>
      <trkpt lat="46.16405" lon="3.45059">
        <ele>378.96</ele>
        <time>2020-06-07T09:56:23Z</time>
      </trkpt>
      <trkpt lat="46.16363" lon="3.45069">
        <ele>383.6</ele>
        <time>2020-06-07T09:56:39Z</time>
      </trkpt>
      <trkpt lat="46.16316" lon="3.45081">
        <ele>384.91</ele>
        <time>2020-06-07T09:56:55Z</time>
      </trkpt>
      <trkpt lat="46.16261" lon="3.4509">
        <ele>387.95</ele>
        <time>2020-06-07T09:57:19Z</time>
      </trkpt>
      <trkpt lat="46.1622" lon="3.45099">
        <ele>383.61</ele>
        <time>2020-06-07T09:57:31Z</time>
      </trkpt>
      <trkpt lat="46.16185" lon="3.45119">
        <ele>384.25</ele>
        <time>2020-06-07T09:57:43Z</time>
      </trkpt>
      <trkpt lat="46.1615" lon="3.4514">
        <ele>386.58</ele>
        <time>2020-06-07T09:57:55Z</time>
      </trkpt>
      <trkpt lat="46.16118" lon="3.45167">
        <ele>397.14</ele>
        <time>2020-06-07T09:58:07Z</time>
      </trkpt>
      <trkpt lat="46.16103" lon="3.45222">
        <ele>395.04</ele>
        <time>2020-06-07T09:58:19Z</time>
      </trkpt>
      <trkpt lat="46.16088" lon="3.45279">
        <ele>389.17</ele>
        <time>2020-06-07T09:58:35Z</time>
      </trkpt>
      <trkpt lat="46.16088" lon="3.45336">
        <ele>390.4</ele>
        <time>2020-06-07T09:58:47Z</time>
      </trkpt>
      <trkpt lat="46.16097" lon="3.4539">
        <ele>396.9</ele>
        <time>2020-06-07T09:58:59Z</time>
      </trkpt>
      <trkpt lat="46.16099" lon="3.45443">
        <ele>392.71</ele>
        <time>2020-06-07T09:59:11Z</time>
      </trkpt>
      <trkpt lat="46.16101" lon="3.45496">
        <ele>387.25</ele>
        <time>2020-06-07T09:59:27Z</time>
      </trkpt>
      <trkpt lat="46.16107" lon="3.45557">
        <ele>380.48</ele>
        <time>2020-06-07T09:59:47Z</time>
      </trkpt>
      <trkpt lat="46.16135" lon="3.45597">
        <ele>379.73</ele>
        <time>2020-06-07T09:59:59Z</time>
      </trkpt>
      <trkpt lat="46.16165" lon="3.4563">
        <ele>377.74</ele>
        <time>2020-06-07T10:00:11Z</time>
      </trkpt>
      <trkpt lat="46.16206" lon="3.45618">
        <ele>374.03</ele>
        <time>2020-06-07T10:00:27Z</time>
      </trkpt>
      <trkpt lat="46.16239" lon="3.45585">
        <ele>375.31</ele>
        <time>2020-06-07T10:00:43Z</time>
      </trkpt>
      <trkpt lat="46.16262" lon="3.45538">
        <ele>372.91</ele>
        <time>2020-06-07T10:00:59Z</time>
      </trkpt>
      <trkpt lat="46.16293" lon="3.45495">
        <ele>376</ele>
        <time>2020-06-07T10:01:15Z</time>
      </trkpt>
      <trkpt lat="46.16306" lon="3.45434">
        <ele>374.88</ele>
        <time>2020-06-07T10:01:31Z</time>
      </trkpt>
      <trkpt lat="46.16306" lon="3.45366">
        <ele>372.91</ele>
        <time>2020-06-07T10:01:47Z</time>
      </trkpt>
      <trkpt lat="46.16294" lon="3.45316">
        <ele>369.07</ele>
        <time>2020-06-07T10:01:59Z</time>
      </trkpt>
      <trkpt lat="46.16332" lon="3.45351">
        <ele>363.37</ele>
        <time>2020-06-07T10:02:31Z</time>
      </trkpt>
      <trkpt lat="46.1636" lon="3.45413">
        <ele>367.04</ele>
        <time>2020-06-07T10:02:47Z</time>
      </trkpt>
      <trkpt lat="46.16383" lon="3.4547">
        <ele>366.65</ele>
        <time>2020-06-07T10:03:03Z</time>
      </trkpt>
      <trkpt lat="46.16403" lon="3.4553">
        <ele>360.56</ele>
        <time>2020-06-07T10:03:19Z</time>
      </trkpt>
      <trkpt lat="46.16385" lon="3.45585">
        <ele>343.69</ele>
        <time>2020-06-07T10:03:31Z</time>
      </trkpt>
      <trkpt lat="46.16354" lon="3.45634">
        <ele>342.27</ele>
        <time>2020-06-07T10:03:47Z</time>
      </trkpt>
      <trkpt lat="46.16324" lon="3.45686">
        <ele>342.26</ele>
        <time>2020-06-07T10:04:03Z</time>
      </trkpt>
      <trkpt lat="46.16296" lon="3.45735">
        <ele>342.94</ele>
        <time>2020-06-07T10:04:19Z</time>
      </trkpt>
      <trkpt lat="46.16279" lon="3.45788">
        <ele>347.48</ele>
        <time>2020-06-07T10:04:35Z</time>
      </trkpt>
      <trkpt lat="46.16238" lon="3.45787">
        <ele>340.35</ele>
        <time>2020-06-07T10:04:55Z</time>
      </trkpt>
      <trkpt lat="46.16206" lon="3.45753">
        <ele>347.73</ele>
        <time>2020-06-07T10:05:15Z</time>
      </trkpt>
      <trkpt lat="46.16174" lon="3.45721">
        <ele>353.04</ele>
        <time>2020-06-07T10:05:35Z</time>
      </trkpt>
      <trkpt lat="46.16142" lon="3.45697">
        <ele>354.05</ele>
        <time>2020-06-07T10:05:51Z</time>
      </trkpt>
      <trkpt lat="46.16107" lon="3.45655">
        <ele>352.57</ele>
        <time>2020-06-07T10:06:07Z</time>
      </trkpt>
      <trkpt lat="46.16077" lon="3.45627">
        <ele>353.89</ele>
        <time>2020-06-07T10:06:23Z</time>
      </trkpt>
      <trkpt lat="46.16034" lon="3.4561">
        <ele>350.83</ele>
        <time>2020-06-07T10:06:43Z</time>
      </trkpt>
      <trkpt lat="46.15995" lon="3.45614">
        <ele>348.74</ele>
        <time>2020-06-07T10:06:55Z</time>
      </trkpt>
      <trkpt lat="46.15963" lon="3.45573">
        <ele>340.75</ele>
        <time>2020-06-07T10:07:15Z</time>
      </trkpt>
      <trkpt lat="46.15938" lon="3.45535">
        <ele>350.47</ele>
        <time>2020-06-07T10:07:39Z</time>
      </trkpt>
      <trkpt lat="46.15909" lon="3.45501">
        <ele>357.21</ele>
        <time>2020-06-07T10:08:03Z</time>
      </trkpt>
      <trkpt lat="46.15917" lon="3.45446">
        <ele>365.15</ele>
        <time>2020-06-07T10:08:23Z</time>
      </trkpt>
      <trkpt lat="46.15923" lon="3.45384">
        <ele>368.25</ele>
        <time>2020-06-07T10:08:43Z</time>
      </trkpt>
      <trkpt lat="46.15925" lon="3.45325">
        <ele>374.87</ele>
        <time>2020-06-07T10:09:03Z</time>
      </trkpt>
      <trkpt lat="46.15902" lon="3.45273">
        <ele>383.47</ele>
        <time>2020-06-07T10:09:27Z</time>
      </trkpt>
      <trkpt lat="46.15873" lon="3.45237">
        <ele>388.98</ele>
        <time>2020-06-07T10:09:47Z</time>
      </trkpt>
      <trkpt lat="46.15847" lon="3.45198">
        <ele>390.5</ele>
        <time>2020-06-07T10:10:03Z</time>
      </trkpt>
      <trkpt lat="46.15831" lon="3.4514">
        <ele>393.43</ele>
        <time>2020-06-07T10:10:23Z</time>
      </trkpt>
      <trkpt lat="46.1584" lon="3.45084">
        <ele>397.13</ele>
        <time>2020-06-07T10:10:43Z</time>
      </trkpt>
      <trkpt lat="46.15839" lon="3.45017">
        <ele>399.64</ele>
        <time>2020-06-07T10:11:03Z</time>
      </trkpt>
      <trkpt lat="46.15838" lon="3.44956">
        <ele>399.21</ele>
        <time>2020-06-07T10:11:19Z</time>
      </trkpt>
      <trkpt lat="46.15832" lon="3.44895">
        <ele>400.46</ele>
        <time>2020-06-07T10:11:35Z</time>
      </trkpt>
      <trkpt lat="46.1582" lon="3.44843">
        <ele>402.73</ele>
        <time>2020-06-07T10:11:51Z</time>
      </trkpt>
      <trkpt lat="46.15811" lon="3.44791">
        <ele>399.95</ele>
        <time>2020-06-07T10:12:03Z</time>
      </trkpt>
      <trkpt lat="46.15817" lon="3.44723">
        <ele>395.82</ele>
        <time>2020-06-07T10:12:19Z</time>
      </trkpt>
      <trkpt lat="46.15812" lon="3.44657">
        <ele>393.63</ele>
        <time>2020-06-07T10:12:35Z</time>
      </trkpt>
      <trkpt lat="46.15807" lon="3.44589">
        <ele>390.66</ele>
        <time>2020-06-07T10:12:51Z</time>
      </trkpt>
      <trkpt lat="46.15803" lon="3.44537">
        <ele>389.86</ele>
        <time>2020-06-07T10:13:03Z</time>
      </trkpt>
      <trkpt lat="46.15807" lon="3.44475">
        <ele>387.78</ele>
        <time>2020-06-07T10:13:19Z</time>
      </trkpt>
      <trkpt lat="46.15827" lon="3.44418">
        <ele>387.85</ele>
        <time>2020-06-07T10:13:35Z</time>
      </trkpt>
      <trkpt lat="46.15856" lon="3.44377">
        <ele>381.4</ele>
        <time>2020-06-07T10:13:51Z</time>
      </trkpt>
      <trkpt lat="46.15891" lon="3.44339">
        <ele>372.48</ele>
        <time>2020-06-07T10:14:07Z</time>
      </trkpt>
      <trkpt lat="46.15882" lon="3.44277">
        <ele>365.47</ele>
        <time>2020-06-07T10:14:23Z</time>
      </trkpt>
      <trkpt lat="46.15872" lon="3.44211">
        <ele>359.05</ele>
        <time>2020-06-07T10:14:39Z</time>
      </trkpt>
      <trkpt lat="46.15873" lon="3.44155">
        <ele>357.08</ele>
        <time>2020-06-07T10:14:55Z</time>
      </trkpt>
      <trkpt lat="46.15879" lon="3.44095">
        <ele>351.91</ele>
        <time>2020-06-07T10:15:11Z</time>
      </trkpt>
      <trkpt lat="46.15892" lon="3.44039">
        <ele>352.24</ele>
        <time>2020-06-07T10:15:27Z</time>
      </trkpt>
      <trkpt lat="46.15903" lon="3.43986">
        <ele>362.98</ele>
        <time>2020-06-07T10:15:47Z</time>
      </trkpt>
      <trkpt lat="46.15913" lon="3.43935">
        <ele>374.92</ele>
        <time>2020-06-07T10:16:11Z</time>
      </trkpt>
      <trkpt lat="46.15933" lon="3.43884">
        <ele>378.95</ele>
        <time>2020-06-07T10:16:31Z</time>
      </trkpt>
      <trkpt lat="46.15975" lon="3.43892">
        <ele>381.33</ele>
        <time>2020-06-07T10:16:51Z</time>
      </trkpt>
      <trkpt lat="46.16005" lon="3.43926">
        <ele>379.94</ele>
        <time>2020-06-07T10:17:03Z</time>
      </trkpt>
      <trkpt lat="46.16038" lon="3.43956">
        <ele>378.65</ele>
        <time>2020-06-07T10:17:15Z</time>
      </trkpt>
      <trkpt lat="46.1607" lon="3.43982">
        <ele>379.26</ele>
        <time>2020-06-07T10:17:27Z</time>
      </trkpt>
      <trkpt lat="46.161" lon="3.44016">
        <ele>379.54</ele>
        <time>2020-06-07T10:17:39Z</time>
      </trkpt>
      <trkpt lat="46.16125" lon="3.44056">
        <ele>380.46</ele>
        <time>2020-06-07T10:17:51Z</time>
      </trkpt>
      <trkpt lat="46.16151" lon="3.44096">
        <ele>379.58</ele>
        <time>2020-06-07T10:18:03Z</time>
      </trkpt>
      <trkpt lat="46.16179" lon="3.44137">
        <ele>377.88</ele>
        <time>2020-06-07T10:18:15Z</time>
      </trkpt>
      <trkpt lat="46.16204" lon="3.44177">
        <ele>377.14</ele>
        <time>2020-06-07T10:18:27Z</time>
      </trkpt>
      <trkpt lat="46.1622" lon="3.4423">
        <ele>377.09</ele>
        <time>2020-06-07T10:18:39Z</time>
      </trkpt>
      <trkpt lat="46.16235" lon="3.44287">
        <ele>375.65</ele>
        <time>2020-06-07T10:18:51Z</time>
      </trkpt>
      <trkpt lat="46.16245" lon="3.44341">
        <ele>376.19</ele>
        <time>2020-06-07T10:19:03Z</time>
      </trkpt>
      <trkpt lat="46.16251" lon="3.44395">
        <ele>377.45</ele>
        <time>2020-06-07T10:19:15Z</time>
      </trkpt>
      <trkpt lat="46.16267" lon="3.44444">
        <ele>377.55</ele>
        <time>2020-06-07T10:19:27Z</time>
      </trkpt>
      <trkpt lat="46.16288" lon="3.44494">
        <ele>376.9</ele>
        <time>2020-06-07T10:19:43Z</time>
      </trkpt>
      <trkpt lat="46.16319" lon="3.44527">
        <ele>383.23</ele>
        <time>2020-06-07T10:19:55Z</time>
      </trkpt>
      <trkpt lat="46.16352" lon="3.44569">
        <ele>387.95</ele>
        <time>2020-06-07T10:20:07Z</time>
      </trkpt>
      <trkpt lat="46.16393" lon="3.4455">
        <ele>382.36</ele>
        <time>2020-06-07T10:20:23Z</time>
      </trkpt>
      <trkpt lat="46.16424" lon="3.4452">
        <ele>379.54</ele>
        <time>2020-06-07T10:20:35Z</time>
      </trkpt>
      <trkpt lat="46.16453" lon="3.44489">
        <ele>379.28</ele>
        <time>2020-06-07T10:20:47Z</time>
      </trkpt>
      <trkpt lat="46.16484" lon="3.44458">
        <ele>379.34</ele>
        <time>2020-06-07T10:20:59Z</time>
      </trkpt>
      <trkpt lat="46.16515" lon="3.44427">
        <ele>379.06</ele>
        <time>2020-06-07T10:21:11Z</time>
      </trkpt>
      <trkpt lat="46.1655" lon="3.44397">
        <ele>375.63</ele>
        <time>2020-06-07T10:21:23Z</time>
      </trkpt>
      <trkpt lat="46.16596" lon="3.44377">
        <ele>376.78</ele>
        <time>2020-06-07T10:21:39Z</time>
      </trkpt>
      <trkpt lat="46.16632" lon="3.4436">
        <ele>376.78</ele>
        <time>2020-06-07T10:21:51Z</time>
      </trkpt>
      <trkpt lat="46.16673" lon="3.4433">
        <ele>380.07</ele>
        <time>2020-06-07T10:22:03Z</time>
      </trkpt>
      <trkpt lat="46.16705" lon="3.44305">
        <ele>378.48</ele>
        <time>2020-06-07T10:22:11Z</time>
      </trkpt>
      <trkpt lat="46.16752" lon="3.44278">
        <ele>374.1</ele>
        <time>2020-06-07T10:22:27Z</time>
      </trkpt>
      <trkpt lat="46.16797" lon="3.44254">
        <ele>363.74</ele>
        <time>2020-06-07T10:22:43Z</time>
      </trkpt>
      <trkpt lat="46.16807" lon="3.442">
        <ele>362.65</ele>
        <time>2020-06-07T10:22:55Z</time>
      </trkpt>
      <trkpt lat="46.16819" lon="3.44138">
        <ele>360.71</ele>
        <time>2020-06-07T10:23:11Z</time>
      </trkpt>
      <trkpt lat="46.16847" lon="3.44092">
        <ele>360.07</ele>
        <time>2020-06-07T10:23:23Z</time>
      </trkpt>
      <trkpt lat="46.16883" lon="3.44049">
        <ele>355.64</ele>
        <time>2020-06-07T10:23:39Z</time>
      </trkpt>
      <trkpt lat="46.16924" lon="3.44035">
        <ele>357.98</ele>
        <time>2020-06-07T10:23:55Z</time>
      </trkpt>
      <trkpt lat="46.1696" lon="3.44027">
        <ele>356.5</ele>
        <time>2020-06-07T10:24:07Z</time>
      </trkpt>
      <trkpt lat="46.17004" lon="3.44023">
        <ele>350.1</ele>
        <time>2020-06-07T10:24:23Z</time>
      </trkpt>
      <trkpt lat="46.17048" lon="3.44004">
        <ele>345.07</ele>
        <time>2020-06-07T10:24:39Z</time>
      </trkpt>
      <trkpt lat="46.17083" lon="3.43982">
        <ele>340.58</ele>
        <time>2020-06-07T10:24:51Z</time>
      </trkpt>
      <trkpt lat="46.17131" lon="3.43965">
        <ele>335.8</ele>
        <time>2020-06-07T10:25:07Z</time>
      </trkpt>
      <trkpt lat="46.17166" lon="3.43949">
        <ele>330.33</ele>
        <time>2020-06-07T10:25:19Z</time>
      </trkpt>
      <trkpt lat="46.17202" lon="3.43934">
        <ele>324.2</ele>
        <time>2020-06-07T10:25:31Z</time>
      </trkpt>
      <trkpt lat="46.1725" lon="3.43923">
        <ele>320.91</ele>
        <time>2020-06-07T10:25:47Z</time>
      </trkpt>
      <trkpt lat="46.1729" lon="3.4394">
        <ele>318.61</ele>
        <time>2020-06-07T10:26:03Z</time>
      </trkpt>
      <trkpt lat="46.17263" lon="3.43983">
        <ele>321.92</ele>
        <time>2020-06-07T10:26:19Z</time>
      </trkpt>
      <trkpt lat="46.17237" lon="3.44032">
        <ele>323.46</ele>
        <time>2020-06-07T10:26:35Z</time>
      </trkpt>
      <trkpt lat="46.17248" lon="3.44084">
        <ele>326.71</ele>
        <time>2020-06-07T10:26:51Z</time>
      </trkpt>
      <trkpt lat="46.17213" lon="3.44107">
        <ele>340.18</ele>
        <time>2020-06-07T10:27:11Z</time>
      </trkpt>
      <trkpt lat="46.17174" lon="3.44129">
        <ele>340.42</ele>
        <time>2020-06-07T10:27:27Z</time>
      </trkpt>
      <trkpt lat="46.17137" lon="3.44131">
        <ele>343.99</ele>
        <time>2020-06-07T10:27:43Z</time>
      </trkpt>
      <trkpt lat="46.17093" lon="3.44146">
        <ele>342.29</ele>
        <time>2020-06-07T10:27:59Z</time>
      </trkpt>
      <trkpt lat="46.17068" lon="3.44191">
        <ele>345.22</ele>
        <time>2020-06-07T10:28:15Z</time>
      </trkpt>
      <trkpt lat="46.17043" lon="3.44241">
        <ele>345.08</ele>
        <time>2020-06-07T10:28:31Z</time>
      </trkpt>
      <trkpt lat="46.1701" lon="3.44287">
        <ele>345.68</ele>
        <time>2020-06-07T10:28:47Z</time>
      </trkpt>
      <trkpt lat="46.16986" lon="3.44326">
        <ele>350.92</ele>
        <time>2020-06-07T10:29:03Z</time>
      </trkpt>
      <trkpt lat="46.16956" lon="3.44376">
        <ele>351.91</ele>
        <time>2020-06-07T10:29:19Z</time>
      </trkpt>
      <trkpt lat="46.16923" lon="3.44406">
        <ele>354.25</ele>
        <time>2020-06-07T10:30:03Z</time>
      </trkpt>
      <trkpt lat="46.16893" lon="3.44446">
        <ele>354.55</ele>
        <time>2020-06-07T10:30:19Z</time>
      </trkpt>
      <trkpt lat="46.16869" lon="3.44501">
        <ele>357.49</ele>
        <time>2020-06-07T10:30:35Z</time>
      </trkpt>
      <trkpt lat="46.16845" lon="3.44547">
        <ele>358.44</ele>
        <time>2020-06-07T10:30:51Z</time>
      </trkpt>
      <trkpt lat="46.16807" lon="3.44544">
        <ele>353.98</ele>
        <time>2020-06-07T10:31:07Z</time>
      </trkpt>
      <trkpt lat="46.16779" lon="3.44584">
        <ele>357.09</ele>
        <time>2020-06-07T10:31:23Z</time>
      </trkpt>
      <trkpt lat="46.16767" lon="3.44645">
        <ele>358.54</ele>
        <time>2020-06-07T10:31:39Z</time>
      </trkpt>
      <trkpt lat="46.16746" lon="3.44697">
        <ele>361.14</ele>
        <time>2020-06-07T10:31:55Z</time>
      </trkpt>
      <trkpt lat="46.1672" lon="3.44744">
        <ele>363.94</ele>
        <time>2020-06-07T10:32:11Z</time>
      </trkpt>
      <trkpt lat="46.1676" lon="3.44733">
        <ele>364.28</ele>
        <time>2020-06-07T10:32:31Z</time>
      </trkpt>
      <trkpt lat="46.168" lon="3.44711">
        <ele>364.57</ele>
        <time>2020-06-07T10:32:47Z</time>
      </trkpt>
      <trkpt lat="46.16842" lon="3.4469">
        <ele>363.87</ele>
        <time>2020-06-07T10:33:03Z</time>
      </trkpt>
      <trkpt lat="46.16882" lon="3.44678">
        <ele>363.33</ele>
        <time>2020-06-07T10:33:19Z</time>
      </trkpt>
      <trkpt lat="46.16925" lon="3.44696">
        <ele>366.15</ele>
        <time>2020-06-07T10:33:39Z</time>
      </trkpt>
      <trkpt lat="46.16955" lon="3.44728">
        <ele>368.88</ele>
        <time>2020-06-07T10:33:55Z</time>
      </trkpt>
      <trkpt lat="46.16997" lon="3.44722">
        <ele>376.42</ele>
        <time>2020-06-07T10:34:15Z</time>
      </trkpt>
      <trkpt lat="46.17034" lon="3.44697">
        <ele>377.54</ele>
        <time>2020-06-07T10:34:31Z</time>
      </trkpt>
      <trkpt lat="46.17067" lon="3.44674">
        <ele>380.15</ele>
        <time>2020-06-07T10:34:47Z</time>
      </trkpt>
      <trkpt lat="46.17054" lon="3.44619">
        <ele>387.07</ele>
        <time>2020-06-07T10:35:07Z</time>
      </trkpt>
      <trkpt lat="46.17045" lon="3.44565">
        <ele>386.91</ele>
        <time>2020-06-07T10:35:23Z</time>
      </trkpt>
      <trkpt lat="46.17035" lon="3.44513">
        <ele>387.96</ele>
        <time>2020-06-07T10:35:39Z</time>
      </trkpt>
      <trkpt lat="46.17041" lon="3.44457">
        <ele>389.46</ele>
        <time>2020-06-07T10:35:55Z</time>
      </trkpt>
      <trkpt lat="46.17075" lon="3.4442">
        <ele>383.39</ele>
        <time>2020-06-07T10:36:11Z</time>
      </trkpt>
      <trkpt lat="46.17121" lon="3.44404">
        <ele>378.4</ele>
        <time>2020-06-07T10:36:27Z</time>
      </trkpt>
      <trkpt lat="46.17167" lon="3.44389">
        <ele>374.63</ele>
        <time>2020-06-07T10:36:43Z</time>
      </trkpt>
      <trkpt lat="46.17213" lon="3.44366">
        <ele>370.83</ele>
        <time>2020-06-07T10:36:59Z</time>
      </trkpt>
      <trkpt lat="46.17257" lon="3.44349">
        <ele>369.79</ele>
        <time>2020-06-07T10:37:15Z</time>
      </trkpt>
      <trkpt lat="46.173" lon="3.44334">
        <ele>368.14</ele>
        <time>2020-06-07T10:37:31Z</time>
      </trkpt>
      <trkpt lat="46.1734" lon="3.44319">
        <ele>366.48</ele>
        <time>2020-06-07T10:37:47Z</time>
      </trkpt>
      <trkpt lat="46.17369" lon="3.44268">
        <ele>363.97</ele>
        <time>2020-06-07T10:38:03Z</time>
      </trkpt>
      <trkpt lat="46.17389" lon="3.44224">
        <ele>363.5</ele>
        <time>2020-06-07T10:38:15Z</time>
      </trkpt>
      <trkpt lat="46.17391" lon="3.44162">
        <ele>362.83</ele>
        <time>2020-06-07T10:38:31Z</time>
      </trkpt>
      <trkpt lat="46.17424" lon="3.44126">
        <ele>363.46</ele>
        <time>2020-06-07T10:38:47Z</time>
      </trkpt>
      <trkpt lat="46.17457" lon="3.44079">
        <ele>354.05</ele>
        <time>2020-06-07T10:38:59Z</time>
      </trkpt>
      <trkpt lat="46.17495" lon="3.44054">
        <ele>359.72</ele>
        <time>2020-06-07T10:39:15Z</time>
      </trkpt>
      <trkpt lat="46.17528" lon="3.44009">
        <ele>356.99</ele>
        <time>2020-06-07T10:39:31Z</time>
      </trkpt>
      <trkpt lat="46.17558" lon="3.43966">
        <ele>355.63</ele>
        <time>2020-06-07T10:39:47Z</time>
      </trkpt>
      <trkpt lat="46.1757" lon="3.43914">
        <ele>354.67</ele>
        <time>2020-06-07T10:40:07Z</time>
      </trkpt>
      <trkpt lat="46.17562" lon="3.43858">
        <ele>356.38</ele>
        <time>2020-06-07T10:40:19Z</time>
      </trkpt>
      <trkpt lat="46.17552" lon="3.43803">
        <ele>358.63</ele>
        <time>2020-06-07T10:40:35Z</time>
      </trkpt>
      <trkpt lat="46.17538" lon="3.4374">
        <ele>359.01</ele>
        <time>2020-06-07T10:40:51Z</time>
      </trkpt>
      <trkpt lat="46.17527" lon="3.43678">
        <ele>355.86</ele>
        <time>2020-06-07T10:41:07Z</time>
      </trkpt>
      <trkpt lat="46.17512" lon="3.43617">
        <ele>338.95</ele>
        <time>2020-06-07T10:41:19Z</time>
      </trkpt>
      <trkpt lat="46.17485" lon="3.43564">
        <ele>335.63</ele>
        <time>2020-06-07T10:41:35Z</time>
      </trkpt>
      <trkpt lat="46.17451" lon="3.43517">
        <ele>337.46</ele>
        <time>2020-06-07T10:41:51Z</time>
      </trkpt>
      <trkpt lat="46.17419" lon="3.43463">
        <ele>338.96</ele>
        <time>2020-06-07T10:42:07Z</time>
      </trkpt>
      <trkpt lat="46.17375" lon="3.43417">
        <ele>335.26</ele>
        <time>2020-06-07T10:42:27Z</time>
      </trkpt>
      <trkpt lat="46.17339" lon="3.43387">
        <ele>338.34</ele>
        <time>2020-06-07T10:42:39Z</time>
      </trkpt>
      <trkpt lat="46.17299" lon="3.4335">
        <ele>339.17</ele>
        <time>2020-06-07T10:42:55Z</time>
      </trkpt>
      <trkpt lat="46.17267" lon="3.43313">
        <ele>339</ele>
        <time>2020-06-07T10:43:11Z</time>
      </trkpt>
      <trkpt lat="46.17232" lon="3.43281">
        <ele>333.16</ele>
        <time>2020-06-07T10:43:23Z</time>
      </trkpt>
      <trkpt lat="46.172" lon="3.43237">
        <ele>327.78</ele>
        <time>2020-06-07T10:43:39Z</time>
      </trkpt>
      <trkpt lat="46.1716" lon="3.43205">
        <ele>326.05</ele>
        <time>2020-06-07T10:43:55Z</time>
      </trkpt>
      <trkpt lat="46.17123" lon="3.43174">
        <ele>332.52</ele>
        <time>2020-06-07T10:44:11Z</time>
      </trkpt>
      <trkpt lat="46.17085" lon="3.4315">
        <ele>330.37</ele>
        <time>2020-06-07T10:44:23Z</time>
      </trkpt>
      <trkpt lat="46.1705" lon="3.43111">
        <ele>314.68</ele>
        <time>2020-06-07T10:44:47Z</time>
      </trkpt>
    </trkseg>
  </trk>
</gpx>